sensor_id;sensor_type;location;lat;lon;timestamp;pressure;altitude;pressure_sealevel;temperature;humidity
31082;BME280;17737;52.586;13.284;2023-04-01T00:01:10;99223.16;;;9.25;96.90
31082;BME280;17737;52.586;13.284;2023-04-01T00:03:41;99224.59;;;9.21;96.40
31082;BME280;17737;52.586;13.284;2023-04-01T00:06:11;99210.34;;;9.27;97.07
31082;BME280;17737;52.586;13.284;2023-04-01T00:08:41;99225.44;;;9.28;96.69
31082;BME280;17737;52.586;13.284;2023-04-01T00:11:12;99214.66;;;9.21;96.92
31082;BME280;17737;52.586;13.284;2023-04-01T00:13:40;99220.28;;;9.26;96.90
31082;BME280;17737;52.586;13.284;2023-04-01T00:16:08;99224.41;;;9.22;97.22
31082;BME280;17737;52.586;13.284;2023-04-01T00:18:48;99221.31;;;9.25;96.48
31082;BME280;17737;52.586;13.284;2023-04-01T00:21:18;99223.78;;;9.27;96.61
31082;BME280;17737;52.586;13.284;2023-04-01T00:23:46;99220.47;;;9.25;96.86
31082;BME280;17737;52.586;13.284;2023-04-01T00:26:16;99222.91;;;9.20;96.64
31082;BME280;17737;52.586;13.284;2023-04-01T00:28:46;99216.34;;;9.22;96.91
31082;BME280;17737;52.586;13.284;2023-04-01T00:31:14;99221.72;;;9.22;96.25
31082;BME280;17737;52.586;13.284;2023-04-01T00:33:43;99220.03;;;9.21;96.11
31082;BME280;17737;52.586;13.284;2023-04-01T00:36:13;99216.28;;;9.16;95.89
31082;BME280;17737;52.586;13.284;2023-04-01T00:38:44;99210.69;;;9.11;96.22
31082;BME280;17737;52.586;13.284;2023-04-01T00:41:16;99213.38;;;9.11;96.57
31082;BME280;17737;52.586;13.284;2023-04-01T00:43:47;99215.00;;;9.12;96.30
31082;BME280;17737;52.586;13.284;2023-04-01T00:46:17;99218.34;;;9.14;96.42
31082;BME280;17737;52.586;13.284;2023-04-01T00:48:48;99218.59;;;9.19;95.68
31082;BME280;17737;52.586;13.284;2023-04-01T00:51:20;99222.06;;;9.19;95.77
31082;BME280;17737;52.586;13.284;2023-04-01T00:53:52;99226.59;;;9.12;95.56
31082;BME280;17737;52.586;13.284;2023-04-01T00:56:26;99226.41;;;9.14;95.66
31082;BME280;17737;52.586;13.284;2023-04-01T00:59:00;99217.91;;;9.10;95.84
31082;BME280;17737;52.586;13.284;2023-04-01T01:01:35;99224.91;;;9.11;96.36
31082;BME280;17737;52.586;13.284;2023-04-01T01:04:03;99217.69;;;9.12;96.52
31082;BME280;17737;52.586;13.284;2023-04-01T01:06:41;99221.59;;;9.09;96.21
31082;BME280;17737;52.586;13.284;2023-04-01T01:09:30;99216.06;;;9.11;96.47
31082;BME280;17737;52.586;13.284;2023-04-01T01:12:11;99213.72;;;9.08;96.28
31082;BME280;17737;52.586;13.284;2023-04-01T01:14:52;99219.56;;;9.11;96.45
31082;BME280;17737;52.586;13.284;2023-04-01T01:17:32;99214.97;;;9.05;96.36
31082;BME280;17737;52.586;13.284;2023-04-01T01:20:32;99216.81;;;9.05;96.73
31082;BME280;17737;52.586;13.284;2023-04-01T01:23:50;99225.53;;;9.07;96.14
31082;BME280;17737;52.586;13.284;2023-04-01T01:26:50;99224.69;;;9.06;96.87
31082;BME280;17737;52.586;13.284;2023-04-01T01:29:47;99220.91;;;9.01;96.53
31082;BME280;17737;52.586;13.284;2023-04-01T01:35:51;99225.69;;;8.99;96.82
31082;BME280;17737;52.586;13.284;2023-04-01T01:38:24;99227.31;;;9.00;97.12
31082;BME280;17737;52.586;13.284;2023-04-01T01:40:57;99229.75;;;8.95;96.90
31082;BME280;17737;52.586;13.284;2023-04-01T01:43:30;99231.41;;;8.96;97.02
31082;BME280;17737;52.586;13.284;2023-04-01T01:46:04;99237.72;;;9.09;96.68
31082;BME280;17737;52.586;13.284;2023-04-01T01:48:36;99234.34;;;9.01;97.10
31082;BME280;17737;52.586;13.284;2023-04-01T01:51:06;99235.78;;;8.97;97.13
31082;BME280;17737;52.586;13.284;2023-04-01T01:53:35;99239.66;;;8.94;97.44
31082;BME280;17737;52.586;13.284;2023-04-01T01:56:04;99228.47;;;8.91;97.87
31082;BME280;17737;52.586;13.284;2023-04-01T01:58:34;99228.38;;;8.99;97.77
31082;BME280;17737;52.586;13.284;2023-04-01T02:01:11;99232.06;;;8.98;97.62
31082;BME280;17737;52.586;13.284;2023-04-01T02:03:44;99231.16;;;8.91;98.20
31082;BME280;17737;52.586;13.284;2023-04-01T02:06:17;99235.13;;;8.95;98.49
31082;BME280;17737;52.586;13.284;2023-04-01T02:08:50;99234.28;;;8.94;98.79
31082;BME280;17737;52.586;13.284;2023-04-01T02:11:26;99236.72;;;8.89;98.49
31082;BME280;17737;52.586;13.284;2023-04-01T02:14:03;99236.53;;;8.91;98.64
31082;BME280;17737;52.586;13.284;2023-04-01T02:16:38;99240.50;;;8.95;99.06
31082;BME280;17737;52.586;13.284;2023-04-01T02:19:11;99245.69;;;8.96;98.79
31082;BME280;17737;52.586;13.284;2023-04-01T02:21:44;99240.72;;;8.93;98.96
31082;BME280;17737;52.586;13.284;2023-04-01T02:24:14;99240.25;;;8.90;99.30
31082;BME280;17737;52.586;13.284;2023-04-01T02:26:43;99236.28;;;8.86;99.27
31082;BME280;17737;52.586;13.284;2023-04-01T02:29:13;99240.13;;;8.98;99.46
31082;BME280;17737;52.586;13.284;2023-04-01T02:31:42;99240.06;;;8.91;99.63
31082;BME280;17737;52.586;13.284;2023-04-01T02:34:11;99236.19;;;8.94;99.17
31082;BME280;17737;52.586;13.284;2023-04-01T02:36:40;99242.16;;;8.96;99.16
31082;BME280;17737;52.586;13.284;2023-04-01T02:39:11;99247.16;;;8.99;99.58
31082;BME280;17737;52.586;13.284;2023-04-01T02:41:41;99249.47;;;9.02;99.50
31082;BME280;17737;52.586;13.284;2023-04-01T02:44:11;99250.47;;;9.01;98.88
31082;BME280;17737;52.586;13.284;2023-04-01T02:46:40;99253.09;;;8.94;99.39
31082;BME280;17737;52.586;13.284;2023-04-01T02:49:09;99252.53;;;8.99;99.10
31082;BME280;17737;52.586;13.284;2023-04-01T02:51:37;99256.81;;;8.93;99.17
31082;BME280;17737;52.586;13.284;2023-04-01T02:54:05;99260.41;;;9.00;99.10
31082;BME280;17737;52.586;13.284;2023-04-01T02:56:34;99256.69;;;9.01;98.67
31082;BME280;17737;52.586;13.284;2023-04-01T02:59:02;99259.34;;;9.01;98.85
31082;BME280;17737;52.586;13.284;2023-04-01T03:01:30;99262.25;;;9.00;98.59
31082;BME280;17737;52.586;13.284;2023-04-01T03:03:59;99264.94;;;9.00;98.27
31082;BME280;17737;52.586;13.284;2023-04-01T03:06:27;99263.44;;;8.97;98.39
31082;BME280;17737;52.586;13.284;2023-04-01T03:08:55;99259.56;;;9.00;98.82
31082;BME280;17737;52.586;13.284;2023-04-01T03:11:23;99267.41;;;9.01;98.26
31082;BME280;17737;52.586;13.284;2023-04-01T03:13:54;99270.06;;;8.95;98.21
31082;BME280;17737;52.586;13.284;2023-04-01T03:16:22;99266.13;;;8.97;98.09
31082;BME280;17737;52.586;13.284;2023-04-01T03:18:50;99266.97;;;8.98;97.79
31082;BME280;17737;52.586;13.284;2023-04-01T03:21:21;99268.91;;;9.04;98.00
31082;BME280;17737;52.586;13.284;2023-04-01T03:23:50;99268.91;;;9.04;97.40
31082;BME280;17737;52.586;13.284;2023-04-01T03:26:19;99274.03;;;8.99;96.97
31082;BME280;17737;52.586;13.284;2023-04-01T03:28:48;99275.47;;;9.01;97.74
31082;BME280;17737;52.586;13.284;2023-04-01T03:31:17;99268.06;;;9.03;97.42
31082;BME280;17737;52.586;13.284;2023-04-01T03:33:48;99270.56;;;9.05;97.46
31082;BME280;17737;52.586;13.284;2023-04-01T03:36:17;99272.16;;;8.99;97.81
31082;BME280;17737;52.586;13.284;2023-04-01T03:38:45;99282.09;;;8.99;97.58
31082;BME280;17737;52.586;13.284;2023-04-01T03:41:14;99281.94;;;9.07;97.06
31082;BME280;17737;52.586;13.284;2023-04-01T03:43:43;99278.22;;;9.08;96.71
31082;BME280;17737;52.586;13.284;2023-04-01T03:46:18;99287.31;;;9.07;96.89
31082;BME280;17737;52.586;13.284;2023-04-01T03:48:47;99286.53;;;9.13;96.66
31082;BME280;17737;52.586;13.284;2023-04-01T03:51:15;99288.06;;;9.01;96.98
31082;BME280;17737;52.586;13.284;2023-04-01T03:53:43;99294.09;;;9.03;96.87
31082;BME280;17737;52.586;13.284;2023-04-01T03:56:11;99293.09;;;9.04;97.40
31082;BME280;17737;52.586;13.284;2023-04-01T03:58:39;99296.78;;;9.03;97.04
31082;BME280;17737;52.586;13.284;2023-04-01T04:01:15;99295.38;;;9.07;96.98
31082;BME280;17737;52.586;13.284;2023-04-01T04:03:47;99302.19;;;9.09;96.90
31082;BME280;17737;52.586;13.284;2023-04-01T04:06:17;99296.56;;;9.04;97.38
31082;BME280;17737;52.586;13.284;2023-04-01T04:08:46;99308.59;;;9.08;96.65
31082;BME280;17737;52.586;13.284;2023-04-01T04:11:14;99301.00;;;9.12;96.49
31082;BME280;17737;52.586;13.284;2023-04-01T04:13:42;99308.47;;;9.16;96.24
31082;BME280;17737;52.586;13.284;2023-04-01T04:16:10;99307.22;;;9.12;96.70
31082;BME280;17737;52.586;13.284;2023-04-01T04:18:40;99313.78;;;9.10;96.80
31082;BME280;17737;52.586;13.284;2023-04-01T04:21:11;99309.00;;;9.05;97.05
31082;BME280;17737;52.586;13.284;2023-04-01T04:23:40;99309.19;;;9.04;97.29
31082;BME280;17737;52.586;13.284;2023-04-01T04:26:10;99311.63;;;8.99;97.20
31082;BME280;17737;52.586;13.284;2023-04-01T04:28:40;99318.66;;;9.00;97.11
31082;BME280;17737;52.586;13.284;2023-04-01T04:31:08;99312.00;;;8.96;97.75
31082;BME280;17737;52.586;13.284;2023-04-01T04:33:36;99318.06;;;9.04;97.33
31082;BME280;17737;52.586;13.284;2023-04-01T04:36:07;99319.94;;;9.04;97.16
31082;BME280;17737;52.586;13.284;2023-04-01T04:38:35;99317.63;;;9.01;97.30
31082;BME280;17737;52.586;13.284;2023-04-01T04:41:03;99316.63;;;9.02;97.16
31082;BME280;17737;52.586;13.284;2023-04-01T04:43:36;99327.75;;;8.99;97.13
31082;BME280;17737;52.586;13.284;2023-04-01T04:46:06;99319.44;;;8.94;97.33
31082;BME280;17737;52.586;13.284;2023-04-01T04:48:34;99324.97;;;8.92;97.35
31082;BME280;17737;52.586;13.284;2023-04-01T04:51:02;99319.06;;;8.97;97.72
31082;BME280;17737;52.586;13.284;2023-04-01T04:53:32;99327.75;;;8.99;97.19
31082;BME280;17737;52.586;13.284;2023-04-01T04:56:00;99333.13;;;8.99;97.50
31082;BME280;17737;52.586;13.284;2023-04-01T04:58:28;99326.72;;;9.00;97.78
31082;BME280;17737;52.586;13.284;2023-04-01T05:00:56;99331.69;;;9.03;97.17
31082;BME280;17737;52.586;13.284;2023-04-01T05:03:24;99336.44;;;9.01;97.22
31082;BME280;17737;52.586;13.284;2023-04-01T05:05:53;99336.88;;;9.04;97.52
31082;BME280;17737;52.586;13.284;2023-04-01T05:08:21;99337.78;;;9.11;96.41
31082;BME280;17737;52.586;13.284;2023-04-01T05:10:51;99338.81;;;9.10;96.99
31082;BME280;17737;52.586;13.284;2023-04-01T05:13:19;99339.00;;;9.09;96.65
31082;BME280;17737;52.586;13.284;2023-04-01T05:15:47;99337.72;;;9.05;97.16
31082;BME280;17737;52.586;13.284;2023-04-01T05:18:15;99344.56;;;9.07;97.36
31082;BME280;17737;52.586;13.284;2023-04-01T05:20:47;99337.00;;;9.17;97.48
31082;BME280;17737;52.586;13.284;2023-04-01T05:23:16;99343.59;;;9.15;96.66
31082;BME280;17737;52.586;13.284;2023-04-01T05:25:45;99335.28;;;9.10;97.45
31082;BME280;17737;52.586;13.284;2023-04-01T05:28:14;99350.31;;;9.25;96.66
31082;BME280;17737;52.586;13.284;2023-04-01T05:30:43;99350.44;;;9.17;96.59
31082;BME280;17737;52.586;13.284;2023-04-01T05:33:12;99353.94;;;9.18;96.75
31082;BME280;17737;52.586;13.284;2023-04-01T05:35:41;99358.88;;;9.14;97.37
31082;BME280;17737;52.586;13.284;2023-04-01T05:38:09;99360.59;;;9.22;97.19
31082;BME280;17737;52.586;13.284;2023-04-01T05:40:37;99354.59;;;9.20;97.17
31082;BME280;17737;52.586;13.284;2023-04-01T05:43:05;99360.47;;;9.30;97.43
31082;BME280;17737;52.586;13.284;2023-04-01T05:45:35;99357.41;;;9.33;96.97
31082;BME280;17737;52.586;13.284;2023-04-01T05:48:03;99357.03;;;9.36;96.76
31082;BME280;17737;52.586;13.284;2023-04-01T05:50:32;99367.78;;;9.36;96.39
31082;BME280;17737;52.586;13.284;2023-04-01T05:53:00;99362.66;;;9.41;96.49
31082;BME280;17737;52.586;13.284;2023-04-01T05:55:28;99366.28;;;9.33;96.78
31082;BME280;17737;52.586;13.284;2023-04-01T05:57:56;99372.34;;;9.42;96.73
31082;BME280;17737;52.586;13.284;2023-04-01T06:00:24;99370.31;;;9.44;95.87
31082;BME280;17737;52.586;13.284;2023-04-01T06:02:53;99375.75;;;9.50;96.00
31082;BME280;17737;52.586;13.284;2023-04-01T06:05:23;99379.16;;;9.38;95.88
31082;BME280;17737;52.586;13.284;2023-04-01T06:07:57;99374.75;;;9.30;96.70
31082;BME280;17737;52.586;13.284;2023-04-01T06:10:45;99378.53;;;9.36;96.02
31082;BME280;17737;52.586;13.284;2023-04-01T06:13:31;99384.28;;;9.33;96.80
31082;BME280;17737;52.586;13.284;2023-04-01T06:16:21;99383.06;;;9.35;96.87
31082;BME280;17737;52.586;13.284;2023-04-01T06:19:05;99386.44;;;9.44;97.04
31082;BME280;17737;52.586;13.284;2023-04-01T06:22:06;99388.94;;;9.45;96.62
31082;BME280;17737;52.586;13.284;2023-04-01T06:25:03;99395.53;;;9.43;96.98
31082;BME280;17737;52.586;13.284;2023-04-01T06:28:00;99394.66;;;9.36;97.18
31082;BME280;17737;52.586;13.284;2023-04-01T06:30:46;99407.91;;;9.37;97.35
31082;BME280;17737;52.586;13.284;2023-04-01T06:33:32;99402.53;;;9.37;97.21
31082;BME280;17737;52.586;13.284;2023-04-01T06:36:22;99402.78;;;9.42;97.47
31082;BME280;17737;52.586;13.284;2023-04-01T06:39:52;99410.38;;;9.39;97.45
31082;BME280;17737;52.586;13.284;2023-04-01T06:42:45;99408.47;;;9.33;98.08
31082;BME280;17737;52.586;13.284;2023-04-01T06:45:32;99408.41;;;9.26;98.42
31082;BME280;17737;52.586;13.284;2023-04-01T06:48:18;99413.22;;;9.31;98.41
31082;BME280;17737;52.586;13.284;2023-04-01T06:51:15;99416.09;;;9.29;98.20
31082;BME280;17737;52.586;13.284;2023-04-01T06:53:57;99420.50;;;9.37;98.92
31082;BME280;17737;52.586;13.284;2023-04-01T06:56:33;99420.34;;;9.45;98.17
31082;BME280;17737;52.586;13.284;2023-04-01T06:59:10;99420.09;;;9.40;98.25
31082;BME280;17737;52.586;13.284;2023-04-01T07:01:45;99427.41;;;9.46;97.71
31082;BME280;17737;52.586;13.284;2023-04-01T07:04:20;99421.09;;;9.32;98.49
31082;BME280;17737;52.586;13.284;2023-04-01T07:06:55;99427.34;;;9.39;98.04
31082;BME280;17737;52.586;13.284;2023-04-01T07:09:30;99430.31;;;9.44;98.15
31082;BME280;17737;52.586;13.284;2023-04-01T07:12:02;99435.34;;;9.54;97.85
31082;BME280;17737;52.586;13.284;2023-04-01T07:14:41;99436.78;;;9.50;98.39
31082;BME280;17737;52.586;13.284;2023-04-01T07:17:15;99435.94;;;9.49;98.52
31082;BME280;17737;52.586;13.284;2023-04-01T07:19:51;99431.19;;;9.51;98.18
31082;BME280;17737;52.586;13.284;2023-04-01T07:22:29;99432.66;;;9.54;98.61
31082;BME280;17737;52.586;13.284;2023-04-01T07:25:04;99440.31;;;9.57;98.53
31082;BME280;17737;52.586;13.284;2023-04-01T07:27:40;99436.72;;;9.71;98.46
31082;BME280;17737;52.586;13.284;2023-04-01T07:30:14;99437.91;;;9.90;97.51
31082;BME280;17737;52.586;13.284;2023-04-01T07:32:46;99437.75;;;9.98;97.20
31082;BME280;17737;52.586;13.284;2023-04-01T07:35:25;99446.47;;;10.00;96.55
31082;BME280;17737;52.586;13.284;2023-04-01T07:38:17;99446.91;;;10.03;97.14
31082;BME280;17737;52.586;13.284;2023-04-01T07:41:01;99447.81;;;10.10;96.98
31082;BME280;17737;52.586;13.284;2023-04-01T07:43:49;99449.41;;;10.05;97.45
31082;BME280;17737;52.586;13.284;2023-04-01T07:46:41;99453.97;;;10.04;97.46
31082;BME280;17737;52.586;13.284;2023-04-01T07:49:27;99454.78;;;10.05;97.10
31082;BME280;17737;52.586;13.284;2023-04-01T07:52:06;99451.56;;;10.09;97.54
31082;BME280;17737;52.586;13.284;2023-04-01T07:54:49;99456.38;;;10.20;97.03
31082;BME280;17737;52.586;13.284;2023-04-01T07:57:29;99467.53;;;10.17;97.45
31082;BME280;17737;52.586;13.284;2023-04-01T08:00:09;99459.00;;;10.41;95.84
31082;BME280;17737;52.586;13.284;2023-04-01T08:02:58;99463.63;;;10.20;95.43
31082;BME280;17737;52.586;13.284;2023-04-01T08:05:44;99468.81;;;10.21;94.64
31082;BME280;17737;52.586;13.284;2023-04-01T08:08:22;99474.84;;;10.02;94.35
31082;BME280;17737;52.586;13.284;2023-04-01T08:11:09;99468.09;;;9.64;94.38
31082;BME280;17737;52.586;13.284;2023-04-01T08:13:53;99476.56;;;9.40;94.98
31082;BME280;17737;52.586;13.284;2023-04-01T08:16:35;99481.88;;;9.33;95.93
31082;BME280;17737;52.586;13.284;2023-04-01T08:19:22;99481.47;;;9.36;95.83
31082;BME280;17737;52.586;13.284;2023-04-01T08:22:03;99484.06;;;9.44;95.93
31082;BME280;17737;52.586;13.284;2023-04-01T08:24:40;99485.66;;;9.39;95.95
31082;BME280;17737;52.586;13.284;2023-04-01T08:27:20;99489.94;;;9.33;95.87
31082;BME280;17737;52.586;13.284;2023-04-01T08:29:58;99487.69;;;9.16;95.29
31082;BME280;17737;52.586;13.284;2023-04-01T08:32:32;99493.28;;;9.00;95.64
31082;BME280;17737;52.586;13.284;2023-04-01T08:35:08;99498.91;;;9.05;96.03
31082;BME280;17737;52.586;13.284;2023-04-01T08:37:44;99498.78;;;8.92;95.82
31082;BME280;17737;52.586;13.284;2023-04-01T08:40:35;99503.09;;;8.93;95.97
31082;BME280;17737;52.586;13.284;2023-04-01T08:43:24;99506.91;;;8.84;96.14
31082;BME280;17737;52.586;13.284;2023-04-01T08:46:32;99512.00;;;8.79;96.06
31082;BME280;17737;52.586;13.284;2023-04-01T08:49:36;99516.09;;;8.75;96.65
31082;BME280;17737;52.586;13.284;2023-04-01T08:52:29;99511.09;;;8.86;96.14
31082;BME280;17737;52.586;13.284;2023-04-01T08:55:17;99510.63;;;8.83;95.57
31082;BME280;17737;52.586;13.284;2023-04-01T08:58:41;99520.72;;;8.81;95.81
31082;BME280;17737;52.586;13.284;2023-04-01T09:01:35;99513.66;;;8.94;95.56
31082;BME280;17737;52.586;13.284;2023-04-01T09:04:25;99518.38;;;8.92;95.37
31082;BME280;17737;52.586;13.284;2023-04-01T09:07:12;99528.19;;;9.00;95.53
31082;BME280;17737;52.586;13.284;2023-04-01T09:10:18;99527.59;;;8.83;95.12
31082;BME280;17737;52.586;13.284;2023-04-01T09:13:14;99513.81;;;8.72;95.99
31082;BME280;17737;52.586;13.284;2023-04-01T09:16:17;99531.84;;;8.78;95.41
31082;BME280;17737;52.586;13.284;2023-04-01T09:19:21;99525.28;;;8.80;95.46
31082;BME280;17737;52.586;13.284;2023-04-01T09:22:13;99535.63;;;8.83;94.79
31082;BME280;17737;52.586;13.284;2023-04-01T09:25:06;99533.97;;;8.82;95.21
31082;BME280;17737;52.586;13.284;2023-04-01T09:27:56;99542.75;;;8.91;94.25
31082;BME280;17737;52.586;13.284;2023-04-01T09:30:42;99542.56;;;9.07;94.01
31082;BME280;17737;52.586;13.284;2023-04-01T09:33:58;99546.47;;;8.90;93.52
31082;BME280;17737;52.586;13.284;2023-04-01T09:36:45;99550.63;;;8.92;93.67
31082;BME280;17737;52.586;13.284;2023-04-01T09:39:34;99556.00;;;9.07;93.32
31082;BME280;17737;52.586;13.284;2023-04-01T09:42:29;99554.88;;;9.16;93.35
31082;BME280;17737;52.586;13.284;2023-04-01T09:45:21;99561.31;;;9.21;92.69
31082;BME280;17737;52.586;13.284;2023-04-01T09:48:09;99555.59;;;9.10;92.30
31082;BME280;17737;52.586;13.284;2023-04-01T09:50:54;99567.19;;;9.10;91.61
31082;BME280;17737;52.586;13.284;2023-04-01T09:53:46;99568.94;;;9.18;91.47
31082;BME280;17737;52.586;13.284;2023-04-01T10:00:27;99574.53;;;9.02;91.77
31082;BME280;17737;52.586;13.284;2023-04-01T10:03:24;99582.81;;;9.36;91.37
31082;BME280;17737;52.586;13.284;2023-04-01T10:06:59;99574.03;;;9.13;90.97
31082;BME280;17737;52.586;13.284;2023-04-01T10:10:17;99588.16;;;9.00;91.56
31082;BME280;17737;52.586;13.284;2023-04-01T10:13:55;99588.34;;;8.99;91.02
31082;BME280;17737;52.586;13.284;2023-04-01T10:20:34;99589.16;;;8.70;91.48
31082;BME280;17737;52.586;13.284;2023-04-01T10:23:54;99599.88;;;8.70;92.07
31082;BME280;17737;52.586;13.284;2023-04-01T10:26:59;99604.25;;;8.86;91.50
31082;BME280;17737;52.586;13.284;2023-04-01T10:30:06;99608.16;;;8.83;90.47
31082;BME280;17737;52.586;13.284;2023-04-01T10:33:14;99613.16;;;8.72;90.29
31082;BME280;17737;52.586;13.284;2023-04-01T10:36:23;99616.47;;;8.74;90.04
31082;BME280;17737;52.586;13.284;2023-04-01T10:42:38;99613.22;;;8.64;90.44
31082;BME280;17737;52.586;13.284;2023-04-01T10:52:18;99614.00;;;8.35;91.74
31082;BME280;17737;52.586;13.284;2023-04-01T10:55:23;99619.09;;;8.30;91.44
31082;BME280;17737;52.586;13.284;2023-04-01T10:58:28;99626.88;;;8.39;91.49
31082;BME280;17737;52.586;13.284;2023-04-01T11:01:51;99631.72;;;8.59;91.24
31082;BME280;17737;52.586;13.284;2023-04-01T11:05:02;99631.53;;;8.45;90.30
31082;BME280;17737;52.586;13.284;2023-04-01T11:18:25;99635.72;;;8.25;91.03
31082;BME280;17737;52.586;13.284;2023-04-01T11:21:35;99639.41;;;8.24;91.16
31082;BME280;17737;52.586;13.284;2023-04-01T11:24:32;99636.41;;;8.19;91.11
31082;BME280;17737;52.586;13.284;2023-04-01T11:33:20;99658.97;;;8.33;90.23
31082;BME280;17737;52.586;13.284;2023-04-01T11:36:09;99656.84;;;8.28;90.41
31082;BME280;17737;52.586;13.284;2023-04-01T11:39:00;99657.41;;;8.16;90.16
31082;BME280;17737;52.586;13.284;2023-04-01T11:41:45;99660.44;;;8.13;90.75
31082;BME280;17737;52.586;13.284;2023-04-01T11:44:20;99666.44;;;7.92;90.87
31082;BME280;17737;52.586;13.284;2023-04-01T11:47:09;99672.16;;;7.89;91.41
31082;BME280;17737;52.586;13.284;2023-04-01T11:49:55;99676.47;;;7.98;91.15
31082;BME280;17737;52.586;13.284;2023-04-01T11:52:44;99676.19;;;7.93;91.50
31082;BME280;17737;52.586;13.284;2023-04-01T11:55:28;99682.72;;;7.91;92.16
31082;BME280;17737;52.586;13.284;2023-04-01T11:58:15;99683.88;;;7.96;92.42
31082;BME280;17737;52.586;13.284;2023-04-01T12:01:04;99693.63;;;7.89;91.90
31082;BME280;17737;52.586;13.284;2023-04-01T12:04:00;99701.06;;;7.79;91.86
31082;BME280;17737;52.586;13.284;2023-04-01T12:06:50;99704.72;;;7.86;92.23
31082;BME280;17737;52.586;13.284;2023-04-01T12:09:29;99704.00;;;7.92;92.41
31082;BME280;17737;52.586;13.284;2023-04-01T12:12:15;99704.34;;;7.89;92.18
31082;BME280;17737;52.586;13.284;2023-04-01T12:15:00;99710.69;;;7.96;92.42
31082;BME280;17737;52.586;13.284;2023-04-01T12:17:48;99720.44;;;7.89;92.90
31082;BME280;17737;52.586;13.284;2023-04-01T12:20:30;99720.09;;;7.92;92.55
31082;BME280;17737;52.586;13.284;2023-04-01T12:23:21;99708.00;;;7.96;92.78
31082;BME280;17737;52.586;13.284;2023-04-01T12:26:29;99719.91;;;7.94;92.69
31082;BME280;17737;52.586;13.284;2023-04-01T12:29:18;99715.78;;;7.83;92.62
31082;BME280;17737;52.586;13.284;2023-04-01T12:32:17;99725.94;;;7.65;93.29
31082;BME280;17737;52.586;13.284;2023-04-01T12:35:21;99734.53;;;7.83;94.00
31082;BME280;17737;52.586;13.284;2023-04-01T12:38:04;99740.78;;;7.76;93.76
31082;BME280;17737;52.586;13.284;2023-04-01T12:41:03;99734.59;;;7.75;93.89
31082;BME280;17737;52.586;13.284;2023-04-01T12:44:04;99736.97;;;7.70;93.83
31082;BME280;17737;52.586;13.284;2023-04-01T12:47:13;99745.41;;;7.59;94.11
31082;BME280;17737;52.586;13.284;2023-04-01T12:50:29;99749.44;;;7.55;94.18
31082;BME280;17737;52.586;13.284;2023-04-01T12:53:32;99752.63;;;7.51;93.80
31082;BME280;17737;52.586;13.284;2023-04-01T12:56:14;99758.13;;;7.57;93.31
31082;BME280;17737;52.586;13.284;2023-04-01T12:59:17;99765.47;;;7.63;92.68
31082;BME280;17737;52.586;13.284;2023-04-01T13:02:11;99761.09;;;7.70;92.69
31082;BME280;17737;52.586;13.284;2023-04-01T13:05:09;99767.78;;;7.66;92.34
31082;BME280;17737;52.586;13.284;2023-04-01T13:08:02;99765.84;;;7.52;92.59
31082;BME280;17737;52.586;13.284;2023-04-01T13:10:59;99768.72;;;7.51;92.80
31082;BME280;17737;52.586;13.284;2023-04-01T13:13:51;99774.44;;;7.40;93.27
31082;BME280;17737;52.586;13.284;2023-04-01T13:16:58;99777.94;;;7.40;93.38
31082;BME280;17737;52.586;13.284;2023-04-01T13:19:40;99785.81;;;7.42;93.05
31082;BME280;17737;52.586;13.284;2023-04-01T13:22:39;99798.03;;;7.52;93.10
31082;BME280;17737;52.586;13.284;2023-04-01T13:25:24;99794.69;;;7.42;92.47
31082;BME280;17737;52.586;13.284;2023-04-01T13:28:03;99796.00;;;7.46;92.78
31082;BME280;17737;52.586;13.284;2023-04-01T13:30:44;99802.03;;;7.48;92.49
31082;BME280;17737;52.586;13.284;2023-04-01T13:33:25;99801.06;;;7.41;92.04
31082;BME280;17737;52.586;13.284;2023-04-01T13:36:08;99801.06;;;7.33;92.36
31082;BME280;17737;52.586;13.284;2023-04-01T13:39:05;99810.47;;;7.37;92.94
31082;BME280;17737;52.586;13.284;2023-04-01T13:44:51;99808.31;;;7.16;92.70
31082;BME280;17737;52.586;13.284;2023-04-01T13:47:46;99813.00;;;7.14;92.62
31082;BME280;17737;52.586;13.284;2023-04-01T13:50:48;99798.94;;;7.12;92.64
31082;BME280;17737;52.586;13.284;2023-04-01T13:56:44;99818.19;;;7.00;92.03
31082;BME280;17737;52.586;13.284;2023-04-01T13:59:52;99819.88;;;7.01;92.18
31082;BME280;17737;52.586;13.284;2023-04-01T14:02:49;99830.06;;;7.05;92.08
31082;BME280;17737;52.586;13.284;2023-04-01T14:05:35;99829.06;;;7.14;92.51
31082;BME280;17737;52.586;13.284;2023-04-01T14:08:23;99831.25;;;7.11;92.65
31082;BME280;17737;52.586;13.284;2023-04-01T14:11:10;99834.59;;;7.05;92.50
31082;BME280;17737;52.586;13.284;2023-04-01T14:13:56;99831.56;;;6.92;92.09
31082;BME280;17737;52.586;13.284;2023-04-01T14:16:57;99849.66;;;6.98;92.59
31082;BME280;17737;52.586;13.284;2023-04-01T14:19:51;99844.78;;;6.93;92.31
31082;BME280;17737;52.586;13.284;2023-04-01T14:22:35;99851.34;;;6.99;92.07
31082;BME280;17737;52.586;13.284;2023-04-01T14:25:32;99856.34;;;6.94;91.79
31082;BME280;17737;52.586;13.284;2023-04-01T14:28:20;99866.06;;;7.03;92.03
31082;BME280;17737;52.586;13.284;2023-04-01T14:31:15;99863.06;;;6.98;91.55
31082;BME280;17737;52.586;13.284;2023-04-01T14:34:00;99869.75;;;6.94;92.04
31082;BME280;17737;52.586;13.284;2023-04-01T14:36:56;99867.38;;;6.83;91.80
31082;BME280;17737;52.586;13.284;2023-04-01T14:39:49;99875.75;;;6.88;92.48
31082;BME280;17737;52.586;13.284;2023-04-01T14:42:53;99878.63;;;7.02;91.91
31082;BME280;17737;52.586;13.284;2023-04-01T14:45:48;99874.41;;;6.84;91.74
31082;BME280;17737;52.586;13.284;2023-04-01T14:48:32;99883.13;;;6.86;91.41
31082;BME280;17737;52.586;13.284;2023-04-01T14:51:13;99874.41;;;6.76;91.85
31082;BME280;17737;52.586;13.284;2023-04-01T14:53:56;99882.44;;;6.76;92.55
31082;BME280;17737;52.586;13.284;2023-04-01T14:56:40;99886.44;;;6.72;92.39
31082;BME280;17737;52.586;13.284;2023-04-01T14:59:14;99898.13;;;6.71;92.56
31082;BME280;17737;52.586;13.284;2023-04-01T15:01:58;99898.81;;;6.65;92.53